Hauptseite
METAR-TAF:

METAR-TAF

Flughäfen :

Flughafen Bujumbura

Bujumbura, Burundi

Breite: 03-19S, Länge: 029-19E, Höhe: 782 m

METAR: fehlend

Zeit: 10:53 (08:53 UTC)

Prognose

Neuester Wetterbericht von vor 3 Stunden und 53 Minuten, um 05:00 UTC
Gültige Prognose vom 17 um 06 UTC bis 18 um 12 UTC
Wind 10 kt aus Süd, Böen bis zu 26 kt
Sichtweite: 7000 m
Leicht bewölkt in der Höhe von 3500 ft
Leicht bewölkt in der Höhe von 3500 ft
trockener Dunst

TAF: HBBA 170500Z 1706/1812 36005KT 5000 HZ NSC BEMG1708/1710 18012G26KT 7000 FEW035 BECMG1716/1718 18005KT CAVOK BECMG1803/1805 VRB03KT 5000HZ NSC BECMG1808/1810 18010KT 7000 FEW035

Wetterbeobachtungen und Prognosen von mehr als 4000 Flughäfen (METAR und TAF Bericht).

Die verfügbaren Stationen werden durch gelbe und rote Markierungen auf der Karte dargestellt.

Führen Sie die Maus auf sie, um den Namen der Station zu sehen.

Darauf klicken, um die Beobachtung von Wetterbeobachtungen und Prognosen zu sehen.

Um die Karte zu ändern : klicken Sie auf den grünen Tasten mit einem schwarzen Kreuz Zum Vergrößern, auf den grünen Button mit einem Gedankenstrich zu verkleinern, oder auf die grünen Pfeile für benachbarte Karten.


METAR-TAF: